Time;durP1;ratioP1;P1;durP2;ratioP2;P2;SDS_P1;SDS_P2;PMS_P1;PMS_P2;Temp;Humidity;BMP_temperature;BMP_pressure;BME280_temperature;BME280_humidity;BME280_pressure;Samples;Min_cycle;Max_cycle;Signal;HPM_P1;HPM_P2
2022/10/11 00:02:16;;;;;;;;;;;16.20;99.90;;;;;;5078412;28;20686;-88
2022/10/11 00:04:42;;;;;;;;;;;16.10;99.90;;;;;;5076966;28;19925;-88
2022/10/11 00:07:08;;;;;;;;;;;16.10;99.90;;;;;;5082025;28;19920;-87
2022/10/11 00:09:33;;;;;;;;;;;16.20;99.90;;;;;;5088775;28;19922;-87
2022/10/11 00:11:59;;;;;;;;;;;16.20;99.90;;;;;;5082790;28;19916;-87
2022/10/11 00:14:25;;;;;;;;;;;16.10;99.90;;;;;;5080793;28;19955;-85
2022/10/11 00:16:52;;;;;;;;;;;16.00;99.90;;;;;;5086019;28;19950;-85
2022/10/11 00:19:17;;;;;;;;;;;16.00;99.90;;;;;;5070374;28;20434;-85
2022/10/11 00:21:43;;;;;;;;;;;15.90;99.90;;;;;;5079439;28;20142;-85
2022/10/11 00:24:09;;;;;;;;;;;15.80;99.90;;;;;;5073950;28;19917;-85
2022/10/11 00:26:35;;;;;;;;;;;15.60;99.90;;;;;;5075824;28;19920;-85
2022/10/11 00:29:01;;;;;;;;;;;15.50;99.90;;;;;;5077158;28;19912;-85
2022/10/11 00:31:26;;;;;;;;;;;15.50;99.90;;;;;;5074121;28;19951;-85
2022/10/11 00:33:53;;;;;;;;;;;15.50;99.90;;;;;;5078533;28;19916;-85
2022/10/11 00:36:18;;;;;;;;;;;15.40;99.90;;;;;;5079309;28;19920;-85
2022/10/11 00:38:44;;;;;;;;;;;15.30;99.90;;;;;;5079821;28;20006;-85
2022/10/11 00:41:10;;;;;;;;;;;15.20;99.90;;;;;;5078225;28;19924;-85
2022/10/11 00:43:35;;;;;;;;;;;15.20;99.90;;;;;;5077890;28;20632;-85
2022/10/11 00:46:10;;;;;;;;;;;15.20;99.90;;;;;;5078309;28;19917;-85
2022/10/11 00:48:41;;;;;;;;;;;15.20;99.90;;;;;;5079330;28;19991;-86
2022/10/11 00:51:17;;;;;;;;;;;15.20;99.90;;;;;;5080269;28;19920;-87
2022/10/11 00:53:43;;;;;;;;;;;15.20;99.90;;;;;;5076769;28;19951;-87
2022/10/11 00:56:13;;;;;;;;;;;15.30;99.90;;;;;;5075261;28;19916;-87
2022/10/11 00:58:40;;;;;;;;;;;15.30;99.90;;;;;;5079467;28;19916;-87
2022/10/11 01:01:06;;;;;;;;;;;15.30;99.90;;;;;;5070099;28;19913;-87
2022/10/11 01:03:32;;;;;;;;;;;15.30;99.90;;;;;;5069697;28;19954;-88
2022/10/11 01:05:57;;;;;;;;;;;15.30;99.90;;;;;;5079078;28;19923;-86
2022/10/11 01:08:25;;;;;;;;;;;15.30;99.90;;;;;;5075094;28;21358;-87
2022/10/11 01:10:51;;;;;;;;;;;15.30;99.90;;;;;;5078625;28;19960;-87
2022/10/11 01:13:17;;;;;;;;;;;15.30;99.90;;;;;;5078503;28;19967;-86
2022/10/11 01:15:49;;;;;;;;;;;15.30;99.90;;;;;;5083187;28;19916;-86
2022/10/11 01:18:27;;;;;;;;;;;15.30;99.90;;;;;;5076383;28;20379;-86
2022/10/11 01:20:57;;;;;;;;;;;15.20;99.90;;;;;;5073431;28;20031;-87
2022/10/11 01:23:32;;;;;;;;;;;15.20;99.90;;;;;;5072707;28;19916;-86
2022/10/11 01:26:00;;;;;;;;;;;15.20;99.90;;;;;;5070903;28;19917;-86
2022/10/11 01:28:40;;;;;;;;;;;15.20;99.90;;;;;;5070817;28;19928;-86
2022/10/11 01:31:29;;;;;;;;;;;15.10;99.90;;;;;;5080060;28;19923;-85
2022/10/11 01:34:01;;;;;;;;;;;15.10;99.90;;;;;;5056726;28;19993;-85
2022/10/11 01:36:28;;;;;;;;;;;15.00;99.90;;;;;;5080325;28;19947;-85
2022/10/11 01:39:13;;;;;;;;;;;15.00;99.90;;;;;;5075705;28;20395;-86
2022/10/11 01:41:41;;;;;;;;;;;15.00;99.90;;;;;;5077173;28;19920;-86
2022/10/11 01:44:07;;;;;;;;;;;14.90;99.90;;;;;;5082750;28;19916;-85
2022/10/11 01:46:33;;;;;;;;;;;15.00;99.90;;;;;;5068086;28;20356;-86
2022/10/11 01:49:00;;;;;;;;;;;14.90;99.90;;;;;;5077820;28;19990;-86
2022/10/11 01:51:30;;;;;;;;;;;15.00;99.90;;;;;;5075531;28;19999;-86
2022/10/11 01:54:07;;;;;;;;;;;15.00;99.90;;;;;;5081785;28;20513;-87
2022/10/11 01:56:39;;;;;;;;;;;15.00;99.90;;;;;;5077880;28;19916;-86
2022/10/11 01:59:19;;;;;;;;;;;14.80;99.90;;;;;;5082210;28;20007;-88
2022/10/11 02:01:48;;;;;;;;;;;14.90;99.90;;;;;;5075290;28;19979;-88
2022/10/11 02:04:16;;;;;;;;;;;15.00;99.90;;;;;;5082534;28;19927;-87
2022/10/11 02:06:55;;;;;;;;;;;14.90;99.90;;;;;;5078478;28;19932;-87
2022/10/11 02:09:25;;;;;;;;;;;14.90;99.90;;;;;;5077184;28;19966;-87
2022/10/11 02:11:53;;;;;;;;;;;14.90;99.90;;;;;;5081981;28;20350;-87
2022/10/11 02:14:21;;;;;;;;;;;14.90;99.90;;;;;;5079947;28;19969;-87
2022/10/11 02:16:52;;;;;;;;;;;14.80;99.90;;;;;;5085240;28;20703;-87
2022/10/11 02:19:19;;;;;;;;;;;14.80;99.90;;;;;;5079531;28;20784;-86
2022/10/11 02:21:48;;;;;;;;;;;14.80;99.90;;;;;;5074667;28;20353;-87
2022/10/11 02:24:20;;;;;;;;;;;14.80;99.90;;;;;;5080606;28;19944;-86
2022/10/11 02:26:48;;;;;;;;;;;14.80;99.90;;;;;;5070951;28;19920;-86
2022/10/11 02:29:15;;;;;;;;;;;14.70;99.90;;;;;;5074371;28;19980;-88
2022/10/11 02:31:42;;;;;;;;;;;14.70;99.90;;;;;;5076232;28;20578;-86
2022/10/11 02:34:12;;;;;;;;;;;14.70;99.90;;;;;;5074728;28;19916;-85
2022/10/11 02:36:41;;;;;;;;;;;14.60;99.90;;;;;;5083616;28;20427;-87
2022/10/11 02:39:11;;;;;;;;;;;14.50;99.90;;;;;;5073757;28;19917;-86
2022/10/11 02:41:38;;;;;;;;;;;14.50;99.90;;;;;;5076505;28;19916;-85
2022/10/11 02:44:16;;;;;;;;;;;14.50;99.90;;;;;;5077229;28;20019;-85
2022/10/11 02:46:42;;;;;;;;;;;14.40;99.90;;;;;;5072558;28;19988;-87
2022/10/11 02:49:08;;;;;;;;;;;14.50;99.90;;;;;;5080305;28;19924;-85
2022/10/11 02:51:34;;;;;;;;;;;14.50;99.90;;;;;;5087201;28;20295;-86
2022/10/11 02:54:00;;;;;;;;;;;14.50;99.90;;;;;;5072390;28;19991;-86
2022/10/11 02:56:26;;;;;;;;;;;14.50;99.90;;;;;;5082983;28;20439;-87
2022/10/11 02:58:51;;;;;;;;;;;14.50;99.90;;;;;;5073014;28;19916;-86
2022/10/11 03:01:17;;;;;;;;;;;14.40;99.90;;;;;;5074460;28;20819;-87
2022/10/11 03:03:42;;;;;;;;;;;14.30;99.90;;;;;;5082925;28;19920;-87
2022/10/11 03:06:08;;;;;;;;;;;14.30;99.90;;;;;;5079896;28;20616;-88
2022/10/11 03:08:34;;;;;;;;;;;14.30;99.90;;;;;;5089498;28;20018;-88
2022/10/11 03:10:59;;;;;;;;;;;14.30;99.90;;;;;;5081809;28;19923;-87
2022/10/11 03:13:25;;;;;;;;;;;14.20;99.90;;;;;;5076841;28;20046;-87
2022/10/11 03:15:51;;;;;;;;;;;14.30;99.90;;;;;;5086013;28;19970;-86
2022/10/11 03:18:17;;;;;;;;;;;14.30;99.90;;;;;;5074728;28;19916;-84
2022/10/11 03:20:43;;;;;;;;;;;14.30;99.90;;;;;;5075824;28;19924;-85
2022/10/11 03:23:09;;;;;;;;;;;14.30;99.90;;;;;;5082049;28;19981;-86
2022/10/11 03:25:35;;;;;;;;;;;14.30;99.90;;;;;;5081411;28;19915;-89
2022/10/11 03:28:00;;;;;;;;;;;14.20;99.90;;;;;;5070313;28;19974;-89
2022/10/11 03:30:26;;;;;;;;;;;14.20;99.90;;;;;;5074030;28;20661;-91
2022/10/11 03:32:51;;;;;;;;;;;14.20;99.90;;;;;;5078911;28;19927;-90
2022/10/11 03:35:17;;;;;;;;;;;14.20;99.90;;;;;;5085885;28;20003;-89
2022/10/11 03:37:43;;;;;;;;;;;14.20;99.90;;;;;;5078286;28;19916;-89
2022/10/11 03:40:08;;;;;;;;;;;14.20;99.90;;;;;;5075292;28;20008;-90
2022/10/11 03:42:35;;;;;;;;;;;14.10;99.90;;;;;;5074315;28;19938;-87
2022/10/11 03:45:03;;;;;;;;;;;14.10;99.90;;;;;;5079735;28;19938;-86
2022/10/11 03:47:30;;;;;;;;;;;14.10;99.90;;;;;;5078560;28;20628;-87
2022/10/11 03:49:55;;;;;;;;;;;14.10;99.90;;;;;;5078016;28;19916;-88
2022/10/11 03:52:21;;;;;;;;;;;14.20;99.90;;;;;;5081202;28;19961;-88
2022/10/11 03:54:47;;;;;;;;;;;14.20;99.90;;;;;;5082722;28;19916;-87
2022/10/11 03:57:13;;;;;;;;;;;14.20;99.90;;;;;;5071823;28;19915;-85
2022/10/11 03:59:38;;;;;;;;;;;14.10;99.90;;;;;;5081680;28;19976;-85
2022/10/11 04:02:04;;;;;;;;;;;14.20;99.90;;;;;;5074331;28;19971;-86
2022/10/11 04:04:29;;;;;;;;;;;14.20;99.90;;;;;;5078994;28;19922;-86
2022/10/11 04:06:55;;;;;;;;;;;14.20;99.90;;;;;;5074292;28;20798;-86
2022/10/11 04:09:20;;;;;;;;;;;14.10;99.90;;;;;;5079110;28;19920;-86
2022/10/11 04:11:46;;;;;;;;;;;14.20;99.90;;;;;;5075049;28;19916;-85
2022/10/11 04:14:11;;;;;;;;;;;14.20;99.90;;;;;;5083810;28;20435;-86
2022/10/11 04:16:40;;;;;;;;;;;14.20;99.90;;;;;;5075402;28;19920;-88
2022/10/11 04:19:06;;;;;;;;;;;14.20;99.90;;;;;;5069507;28;19920;-88
2022/10/11 04:21:31;;;;;;;;;;;14.30;99.90;;;;;;5073529;28;19935;-86
2022/10/11 04:23:57;;;;;;;;;;;14.30;99.90;;;;;;5084083;28;19920;-85
2022/10/11 04:26:23;;;;;;;;;;;14.30;99.90;;;;;;5083265;28;19916;-86
2022/10/11 04:28:48;;;;;;;;;;;14.30;99.90;;;;;;5070153;28;19920;-85
2022/10/11 04:31:14;;;;;;;;;;;14.30;99.90;;;;;;5078053;28;19934;-85
2022/10/11 04:33:39;;;;;;;;;;;14.30;99.90;;;;;;5068289;28;19939;-85
2022/10/11 04:36:05;;;;;;;;;;;14.20;99.90;;;;;;5073388;28;20011;-86
2022/10/11 04:38:31;;;;;;;;;;;14.20;99.90;;;;;;5072367;28;19920;-88
2022/10/11 04:41:04;;;;;;;;;;;14.30;99.90;;;;;;5085947;28;19920;-87
2022/10/11 04:43:30;;;;;;;;;;;14.30;99.90;;;;;;5077954;28;19927;-88
2022/10/11 04:45:55;;;;;;;;;;;14.40;99.90;;;;;;5079237;28;19916;-92
2022/10/11 04:48:21;;;;;;;;;;;14.40;99.90;;;;;;5083671;28;19939;-83
2022/10/11 04:50:46;;;;;;;;;;;14.40;99.90;;;;;;5085699;28;19923;-88
2022/10/11 04:53:12;;;;;;;;;;;14.40;99.90;;;;;;5076704;28;19916;-91
2022/10/11 04:55:37;;;;;;;;;;;14.40;99.90;;;;;;5081997;28;19916;-88
2022/10/11 04:58:03;;;;;;;;;;;14.30;99.90;;;;;;5084728;28;19923;-89
2022/10/11 05:00:28;;;;;;;;;;;14.30;99.90;;;;;;5084129;28;19963;-87
2022/10/11 05:02:54;;;;;;;;;;;14.30;99.90;;;;;;5073245;28;19955;-84
2022/10/11 05:05:20;;;;;;;;;;;14.20;99.90;;;;;;5070517;28;19924;-87
2022/10/11 05:07:45;;;;;;;;;;;14.20;99.90;;;;;;5078602;28;19925;-83
2022/10/11 05:10:11;;;;;;;;;;;14.30;99.90;;;;;;5074976;28;19916;-84
2022/10/11 05:12:36;;;;;;;;;;;14.30;99.90;;;;;;5072522;28;19921;-87
2022/10/11 05:15:02;;;;;;;;;;;14.30;99.90;;;;;;5078856;28;20406;-89
2022/10/11 05:17:28;;;;;;;;;;;14.20;99.90;;;;;;5079065;28;19916;-87
2022/10/11 05:19:53;;;;;;;;;;;14.20;99.90;;;;;;5070947;28;19916;-88
2022/10/11 05:22:19;;;;;;;;;;;14.10;99.90;;;;;;5079100;28;20299;-88
2022/10/11 05:24:44;;;;;;;;;;;14.10;99.90;;;;;;5074595;28;20003;-86
2022/10/11 05:27:10;;;;;;;;;;;14.10;99.90;;;;;;5074799;28;19920;-86
2022/10/11 05:29:36;;;;;;;;;;;14.10;99.90;;;;;;5081016;28;19927;-88
2022/10/11 05:32:01;;;;;;;;;;;14.10;99.90;;;;;;5080532;28;19927;-88
2022/10/11 05:34:27;;;;;;;;;;;14.10;99.90;;;;;;5073281;28;19926;-89
2022/10/11 05:36:52;;;;;;;;;;;14.10;99.90;;;;;;5075492;28;19923;-88
2022/10/11 05:39:18;;;;;;;;;;;14.00;99.90;;;;;;5067313;28;19923;-90
2022/10/11 05:41:43;;;;;;;;;;;13.90;99.90;;;;;;5069403;28;19919;-86
2022/10/11 05:44:09;;;;;;;;;;;13.90;99.90;;;;;;5068308;28;20410;-81
2022/10/11 05:46:35;;;;;;;;;;;13.90;99.90;;;;;;5066304;28;19923;-84
2022/10/11 05:49:00;;;;;;;;;;;13.90;99.90;;;;;;5080656;28;19923;-84
2022/10/11 05:51:26;;;;;;;;;;;14.00;99.90;;;;;;5081479;28;19912;-85
2022/10/11 05:53:51;;;;;;;;;;;14.00;99.90;;;;;;5079570;28;20450;-85
2022/10/11 05:56:18;;;;;;;;;;;14.00;99.90;;;;;;5079905;28;19948;-85
2022/10/11 05:58:44;;;;;;;;;;;14.00;99.90;;;;;;5073773;28;20379;-84
2022/10/11 06:01:17;;;;;;;;;;;14.10;99.90;;;;;;5074100;28;19969;-84
2022/10/11 06:03:43;;;;;;;;;;;14.00;99.90;;;;;;5086769;28;19920;-84
2022/10/11 06:06:08;;;;;;;;;;;14.00;99.90;;;;;;5083630;28;19916;-86
2022/10/11 06:08:34;;;;;;;;;;;14.00;99.90;;;;;;5070679;28;20014;-86
2022/10/11 06:11:07;;;;;;;;;;;14.00;99.90;;;;;;5088795;28;19919;-85
2022/10/11 06:13:34;;;;;;;;;;;14.00;99.90;;;;;;5076559;28;19913;-85
2022/10/11 06:16:02;;;;;;;;;;;14.10;99.90;;;;;;5074590;28;19955;-84
2022/10/11 06:18:28;;;;;;;;;;;14.10;99.90;;;;;;5084661;28;19912;-84
2022/10/11 06:20:53;;;;;;;;;;;14.20;99.90;;;;;;5090082;28;20422;-85
2022/10/11 06:23:19;;;;;;;;;;;14.40;99.90;;;;;;5085386;28;20049;-84
2022/10/11 06:25:54;;;;;;;;;;;14.40;99.90;;;;;;5085267;28;19920;-84
2022/10/11 06:28:19;;;;;;;;;;;14.30;99.90;;;;;;5080412;28;19991;-85
2022/10/11 06:30:45;;;;;;;;;;;14.10;99.90;;;;;;5085504;28;19989;-87
2022/10/11 06:33:10;;;;;;;;;;;14.10;99.90;;;;;;5078660;28;19917;-85
2022/10/11 06:35:36;;;;;;;;;;;14.20;99.90;;;;;;5087965;28;20347;-87
2022/10/11 06:38:01;;;;;;;;;;;14.20;99.90;;;;;;5073385;28;19913;-86
2022/10/11 06:40:27;;;;;;;;;;;14.30;99.90;;;;;;5088498;28;20637;-85
2022/10/11 06:42:52;;;;;;;;;;;14.30;99.90;;;;;;5088276;28;20024;-85
2022/10/11 06:45:18;;;;;;;;;;;14.30;99.90;;;;;;5078630;28;19924;-85
2022/10/11 06:47:43;;;;;;;;;;;14.40;99.90;;;;;;5074368;28;19916;-85
2022/10/11 06:50:09;;;;;;;;;;;14.50;99.90;;;;;;5088375;28;20413;-88
2022/10/11 06:52:34;;;;;;;;;;;14.60;99.90;;;;;;5077888;28;19912;-85
2022/10/11 06:55:00;;;;;;;;;;;14.70;99.90;;;;;;5075152;28;19913;-85
2022/10/11 06:57:26;;;;;;;;;;;14.90;99.90;;;;;;5090845;28;19937;-84
2022/10/11 06:59:52;;;;;;;;;;;15.30;99.90;;;;;;5074312;28;19916;-84
2022/10/11 07:02:17;;;;;;;;;;;15.90;99.90;;;;;;5084961;28;19923;-84
2022/10/11 07:04:43;;;;;;;;;;;16.70;99.90;;;;;;5087223;28;19970;-84
2022/10/11 07:07:11;;;;;;;;;;;16.80;99.90;;;;;;5073908;28;19924;-85
2022/10/11 07:09:36;;;;;;;;;;;16.50;99.90;;;;;;5077401;28;19912;-85
2022/10/11 07:12:02;;;;;;;;;;;16.70;99.90;;;;;;5074791;28;20799;-85
2022/10/11 07:14:28;;;;;;;;;;;16.20;99.90;;;;;;5087023;28;19912;-84
2022/10/11 07:16:53;;;;;;;;;;;16.20;99.90;;;;;;5082404;28;20049;-84
2022/10/11 07:19:19;;;;;;;;;;;16.90;99.90;;;;;;5076939;28;19943;-85
2022/10/11 07:21:44;;;;;;;;;;;17.50;99.90;;;;;;5077775;28;19944;-84
2022/10/11 07:24:10;;;;;;;;;;;18.00;99.90;;;;;;5084738;28;19912;-85
2022/10/11 07:26:36;;;;;;;;;;;17.60;99.90;;;;;;5083556;28;19912;-84
2022/10/11 07:29:01;;;;;;;;;;;17.60;99.90;;;;;;5069773;28;20639;-85
2022/10/11 07:31:27;;;;;;;;;;;17.30;99.90;;;;;;5078611;28;19912;-84
2022/10/11 07:33:53;;;;;;;;;;;17.10;99.90;;;;;;5078771;28;19912;-85
2022/10/11 07:36:18;;;;;;;;;;;17.20;99.90;;;;;;5075097;28;19939;-85
2022/10/11 07:38:45;;;;;;;;;;;17.40;99.90;;;;;;5082215;28;19947;-85
2022/10/11 07:41:11;;;;;;;;;;;17.40;99.90;;;;;;5078143;28;20379;-83
2022/10/11 07:43:38;;;;;;;;;;;17.60;99.90;;;;;;5089362;28;19935;-82
2022/10/11 07:46:04;;;;;;;;;;;17.80;99.90;;;;;;5077599;28;19912;-83
2022/10/11 07:48:31;;;;;;;;;;;18.10;99.90;;;;;;5079823;28;19916;-83
2022/10/11 07:51:05;;;;;;;;;;;18.10;99.90;;;;;;5080252;28;19912;-83
2022/10/11 07:53:30;;;;;;;;;;;18.00;99.90;;;;;;5083535;28;19920;-83
2022/10/11 07:55:58;;;;;;;;;;;17.80;99.90;;;;;;5070467;28;19913;-83
2022/10/11 07:58:24;;;;;;;;;;;17.90;99.90;;;;;;5081906;28;20493;-83
2022/10/11 08:00:52;;;;;;;;;;;17.70;99.90;;;;;;5079850;28;19923;-83
2022/10/11 08:03:18;;;;;;;;;;;17.70;99.90;;;;;;5084382;28;20018;-82
2022/10/11 08:05:43;;;;;;;;;;;17.80;99.90;;;;;;5086920;28;20012;-83
2022/10/11 08:08:09;;;;;;;;;;;17.70;99.90;;;;;;5086134;28;19931;-83
2022/10/11 08:10:38;;;;;;;;;;;17.60;99.90;;;;;;5086160;28;20015;-83
2022/10/11 08:13:04;;;;;;;;;;;17.60;99.90;;;;;;5080175;28;19915;-83
2022/10/11 08:15:29;;;;;;;;;;;17.80;99.90;;;;;;5078927;28;19912;-83
2022/10/11 08:17:55;;;;;;;;;;;18.20;99.90;;;;;;5083184;28;19935;-83
2022/10/11 08:20:21;;;;;;;;;;;19.20;99.90;;;;;;5080676;28;19919;-83
2022/10/11 08:22:46;;;;;;;;;;;20.10;99.90;;;;;;5083846;28;20049;-83
2022/10/11 08:25:12;;;;;;;;;;;20.00;99.90;;;;;;5069713;28;20462;-83
2022/10/11 08:27:37;;;;;;;;;;;20.00;99.90;;;;;;5069114;28;19916;-83
2022/10/11 08:30:04;;;;;;;;;;;21.00;99.90;;;;;;5068243;28;19916;-83
2022/10/11 08:32:29;;;;;;;;;;;21.00;99.90;;;;;;5068608;28;20728;-82
2022/10/11 08:34:55;;;;;;;;;;;21.40;99.90;;;;;;5073295;28;20003;-82
2022/10/11 08:37:21;;;;;;;;;;;22.50;99.90;;;;;;5067740;28;19961;-83
2022/10/11 08:39:46;;;;;;;;;;;23.10;99.90;;;;;;5073820;28;19913;-83
2022/10/11 08:42:38;;;;;;;;;;;23.20;98.20;;;;;;5077954;28;20172;-83
2022/10/11 08:45:07;;;;;;;;;;;23.60;98.60;;;;;;5064439;28;19962;-83
2022/10/11 08:47:38;;;;;;;;;;;23.10;96.90;;;;;;5081050;28;19929;-83
2022/10/11 08:50:05;;;;;;;;;;;22.70;98.40;;;;;;5074914;28;19916;-83
2022/10/11 08:52:36;;;;;;;;;;;22.10;98.60;;;;;;5079176;28;19923;-83
2022/10/11 08:55:11;;;;;;;;;;;21.70;98.30;;;;;;5073619;28;20357;-83
2022/10/11 08:57:37;;;;;;;;;;;21.30;99.90;;;;;;5078928;28;19912;-83
2022/10/11 09:00:11;;;;;;;;;;;20.90;99.60;;;;;;5075185;28;20306;-83
2022/10/11 09:02:40;;;;;;;;;;;20.90;99.90;;;;;;5081585;28;19986;-83
2022/10/11 09:05:09;;;;;;;;;;;21.50;99.90;;;;;;5075652;28;19916;-83
2022/10/11 09:07:34;;;;;;;;;;;22.20;98.50;;;;;;5073470;28;19920;-83
2022/10/11 09:10:11;;;;;;;;;;;22.50;97.30;;;;;;5073126;28;19923;-83
2022/10/11 09:12:48;;;;;;;;;;;23.20;97.10;;;;;;5087337;28;19919;-83
2022/10/11 09:15:19;;;;;;;;;;;23.30;95.60;;;;;;5079683;28;19912;-83
2022/10/11 09:17:48;;;;;;;;;;;22.40;97.60;;;;;;5083580;28;19912;-83
2022/10/11 09:20:31;;;;;;;;;;;21.20;99.10;;;;;;5077087;28;20443;-83
2022/10/11 09:22:57;;;;;;;;;;;22.00;98.80;;;;;;5082203;28;19935;-83
2022/10/11 09:25:31;;;;;;;;;;;21.90;98.40;;;;;;5076102;28;19912;-83
2022/10/11 09:27:57;;;;;;;;;;;21.70;98.40;;;;;;5067918;28;20791;-83
2022/10/11 09:30:23;;;;;;;;;;;20.90;99.20;;;;;;5081558;28;19912;-83
2022/10/11 09:33:02;;;;;;;;;;;20.70;99.30;;;;;;5081393;28;19916;-83
2022/10/11 09:35:31;;;;;;;;;;;20.90;99.90;;;;;;5072636;28;19955;-83
2022/10/11 09:38:02;;;;;;;;;;;21.10;99.90;;;;;;5078340;28;19938;-84
2022/10/11 09:40:39;;;;;;;;;;;21.50;98.70;;;;;;5071786;28;20364;-84
2022/10/11 09:43:04;;;;;;;;;;;21.60;98.20;;;;;;5072177;28;19958;-83
2022/10/11 09:45:30;;;;;;;;;;;22.20;97.00;;;;;;5066686;28;19912;-83
2022/10/11 09:47:58;;;;;;;;;;;22.20;96.40;;;;;;5076954;28;20453;-83
2022/10/11 09:50:29;;;;;;;;;;;21.90;96.80;;;;;;5083288;28;19951;-82
2022/10/11 09:52:59;;;;;;;;;;;21.60;97.00;;;;;;5080255;28;19912;-83
2022/10/11 09:55:31;;;;;;;;;;;21.50;97.60;;;;;;5079090;28;20433;-82
2022/10/11 09:57:56;;;;;;;;;;;21.50;97.10;;;;;;5081409;28;19913;-83
2022/10/11 10:00:23;;;;;;;;;;;21.50;97.50;;;;;;5082190;28;19937;-83
2022/10/11 10:02:56;;;;;;;;;;;21.70;98.70;;;;;;5075312;28;19923;-83
2022/10/11 10:05:26;;;;;;;;;;;21.70;98.10;;;;;;5080480;28;19935;-84
2022/10/11 10:07:57;;;;;;;;;;;21.60;98.20;;;;;;5080497;28;20350;-83
2022/10/11 10:10:28;;;;;;;;;;;21.50;98.60;;;;;;5076066;28;20040;-83
2022/10/11 10:12:55;;;;;;;;;;;21.60;98.50;;;;;;5075283;28;19912;-84
2022/10/11 10:15:20;;;;;;;;;;;21.80;98.50;;;;;;5071002;28;19912;-83
2022/10/11 10:17:50;;;;;;;;;;;21.80;98.60;;;;;;5075050;28;19912;-84
2022/10/11 10:20:21;;;;;;;;;;;21.70;99.70;;;;;;5081091;28;19919;-83
2022/10/11 10:22:47;;;;;;;;;;;21.80;99.90;;;;;;5083102;28;19954;-83
2022/10/11 10:25:20;;;;;;;;;;;21.50;99.90;;;;;;5077589;28;19962;-83
2022/10/11 10:27:56;;;;;;;;;;;21.70;99.20;;;;;;5073670;28;19916;-84
2022/10/11 10:30:23;;;;;;;;;;;21.90;98.90;;;;;;5075238;28;19919;-83
2022/10/11 10:32:58;;;;;;;;;;;21.70;97.10;;;;;;5079627;28;20050;-83
2022/10/11 10:35:24;;;;;;;;;;;21.60;97.20;;;;;;5073252;28;20505;-83
2022/10/11 10:37:49;;;;;;;;;;;21.40;97.60;;;;;;5076161;28;19912;-83
2022/10/11 10:40:24;;;;;;;;;;;21.60;97.40;;;;;;5079559;28;19911;-84
2022/10/11 10:42:50;;;;;;;;;;;21.80;98.10;;;;;;5077652;28;19931;-83
2022/10/11 10:45:16;;;;;;;;;;;22.00;96.80;;;;;;5084459;28;19912;-83
2022/10/11 10:47:51;;;;;;;;;;;22.20;96.70;;;;;;5075112;28;19916;-83
2022/10/11 10:50:20;;;;;;;;;;;22.10;96.20;;;;;;5074016;28;20007;-83
2022/10/11 10:52:48;;;;;;;;;;;22.30;96.20;;;;;;5067053;28;20459;-83
2022/10/11 10:55:32;;;;;;;;;;;22.50;95.90;;;;;;5068249;28;19912;-83
2022/10/11 10:58:03;;;;;;;;;;;22.70;96.80;;;;;;5077494;28;19999;-83
2022/10/11 11:00:35;;;;;;;;;;;22.80;97.00;;;;;;5074427;28;19934;-83
2022/10/11 11:03:02;;;;;;;;;;;23.00;95.80;;;;;;5080428;28;19927;-83
2022/10/11 11:05:37;;;;;;;;;;;22.80;95.30;;;;;;5081479;28;19919;-83
2022/10/11 11:08:02;;;;;;;;;;;22.70;94.30;;;;;;5080662;28;20406;-83
2022/10/11 11:10:46;;;;;;;;;;;22.70;95.60;;;;;;5069824;28;20189;-83
2022/10/11 11:13:11;;;;;;;;;;;22.90;95.10;;;;;;5084609;28;20590;-83
2022/10/11 11:15:40;;;;;;;;;;;22.70;94.90;;;;;;5078824;28;19955;-83
2022/10/11 11:18:06;;;;;;;;;;;22.50;95.50;;;;;;5071452;28;19908;-83
2022/10/11 11:20:31;;;;;;;;;;;22.50;97.30;;;;;;5085560;28;20591;-83
2022/10/11 11:23:15;;;;;;;;;;;22.50;98.20;;;;;;5084530;28;19924;-83
2022/10/11 11:25:41;;;;;;;;;;;22.40;98.80;;;;;;5071833;28;19970;-86
2022/10/11 11:28:25;;;;;;;;;;;22.80;98.50;;;;;;5082701;28;20030;-85
2022/10/11 11:31:06;;;;;;;;;;;22.70;98.60;;;;;;5076147;28;19912;-86
2022/10/11 11:33:51;;;;;;;;;;;22.70;97.80;;;;;;5083312;28;19985;-86
2022/10/11 11:36:22;;;;;;;;;;;22.50;98.30;;;;;;5070997;28;19966;-85
2022/10/11 11:38:51;;;;;;;;;;;22.40;98.10;;;;;;5082804;28;19918;-85
2022/10/11 11:41:21;;;;;;;;;;;22.50;98.00;;;;;;5079315;28;19987;-86
2022/10/11 11:43:54;;;;;;;;;;;22.20;98.90;;;;;;5086022;28;19913;-85
2022/10/11 11:46:22;;;;;;;;;;;22.40;98.60;;;;;;5069474;28;19917;-85
2022/10/11 11:48:49;;;;;;;;;;;22.40;98.40;;;;;;5079273;28;20648;-85
2022/10/11 11:51:17;;;;;;;;;;;22.20;98.40;;;;;;5087725;28;19950;-85
2022/10/11 11:53:46;;;;;;;;;;;22.50;97.80;;;;;;5083981;28;19913;-85
2022/10/11 11:56:20;;;;;;;;;;;22.40;98.40;;;;;;5080048;28;19923;-85
2022/10/11 11:58:54;;;;;;;;;;;22.40;98.80;;;;;;5072844;28;19920;-85
2022/10/11 12:01:23;;;;;;;;;;;22.50;98.80;;;;;;5081862;28;20367;-85
2022/10/11 12:03:52;;;;;;;;;;;22.70;98.00;;;;;;5078607;28;19954;-86
2022/10/11 12:06:22;;;;;;;;;;;22.80;97.60;;;;;;5086804;28;19932;-86
2022/10/11 12:08:56;;;;;;;;;;;22.80;97.70;;;;;;5086077;28;19931;-86
2022/10/11 12:11:21;;;;;;;;;;;22.50;97.60;;;;;;5074817;28;19958;-86
2022/10/11 12:13:49;;;;;;;;;;;22.50;97.90;;;;;;5081052;28;19940;-85
2022/10/11 12:16:15;;;;;;;;;;;22.40;97.90;;;;;;5075953;28;20307;-85
2022/10/11 12:18:49;;;;;;;;;;;22.20;98.50;;;;;;5077724;28;19958;-86
2022/10/11 12:21:18;;;;;;;;;;;22.20;98.80;;;;;;5087986;28;19917;-85
2022/10/11 12:23:45;;;;;;;;;;;21.90;99.20;;;;;;5077318;28;19913;-86
2022/10/11 12:26:13;;;;;;;;;;;21.90;99.20;;;;;;5074873;28;19912;-86
2022/10/11 12:28:42;;;;;;;;;;;21.90;99.70;;;;;;5082502;28;20478;-85
2022/10/11 12:31:20;;;;;;;;;;;21.90;99.60;;;;;;5081339;28;19999;-86
2022/10/11 12:33:45;;;;;;;;;;;22.10;99.30;;;;;;5073718;28;19943;-86
2022/10/11 12:36:30;;;;;;;;;;;22.10;99.10;;;;;;5077412;28;20589;-85
2022/10/11 12:39:14;;;;;;;;;;;22.20;98.90;;;;;;5071513;28;19924;-86
2022/10/11 12:41:54;;;;;;;;;;;22.30;99.10;;;;;;5083257;28;19916;-86
2022/10/11 12:44:27;;;;;;;;;;;22.30;99.20;;;;;;5068505;28;19912;-85
2022/10/11 12:46:52;;;;;;;;;;;22.30;99.10;;;;;;5068181;28;19916;-85
2022/10/11 12:49:31;;;;;;;;;;;22.20;98.60;;;;;;5075045;28;19912;-85
2022/10/11 12:52:15;;;;;;;;;;;22.20;99.50;;;;;;5080730;28;20646;-86
2022/10/11 12:54:49;;;;;;;;;;;22.30;99.00;;;;;;5081982;28;19993;-85
2022/10/11 12:57:24;;;;;;;;;;;22.40;99.00;;;;;;5076866;28;20021;-85
2022/10/11 12:59:50;;;;;;;;;;;22.10;99.40;;;;;;5085194;28;19916;-85
2022/10/11 13:02:22;;;;;;;;;;;22.00;99.70;;;;;;5070157;28;19920;-85
2022/10/11 13:04:48;;;;;;;;;;;22.10;99.90;;;;;;5082236;28;19974;-86
2022/10/11 13:07:22;;;;;;;;;;;22.10;99.20;;;;;;5068930;28;19924;-86
2022/10/11 13:09:51;;;;;;;;;;;22.00;99.30;;;;;;5081310;28;19920;-85
2022/10/11 13:12:18;;;;;;;;;;;22.30;99.70;;;;;;5080788;28;19962;-85
2022/10/11 13:15:02;;;;;;;;;;;22.40;99.30;;;;;;5082912;28;20725;-85
2022/10/11 13:17:38;;;;;;;;;;;22.30;98.50;;;;;;5081096;28;19935;-85
2022/10/11 13:20:19;;;;;;;;;;;22.30;98.70;;;;;;5075216;28;19958;-85
2022/10/11 13:22:47;;;;;;;;;;;22.40;98.40;;;;;;5074522;28;20029;-85
2022/10/11 13:25:17;;;;;;;;;;;22.40;98.70;;;;;;5075849;28;19969;-85
2022/10/11 13:27:43;;;;;;;;;;;22.40;98.80;;;;;;5082018;28;19923;-86
2022/10/11 13:30:15;;;;;;;;;;;22.40;99.20;;;;;;5073877;28;19921;-86
2022/10/11 13:32:41;;;;;;;;;;;22.40;99.30;;;;;;5075762;28;20372;-85
2022/10/11 13:35:15;;;;;;;;;;;22.40;99.40;;;;;;5073385;28;20665;-86
2022/10/11 13:37:43;;;;;;;;;;;22.30;98.90;;;;;;5068557;28;19952;-85
2022/10/11 13:40:12;;;;;;;;;;;22.30;98.90;;;;;;5075102;28;19912;-85
2022/10/11 13:42:38;;;;;;;;;;;22.20;99.80;;;;;;5083198;28;20026;-85
2022/10/11 13:45:08;;;;;;;;;;;22.30;99.90;;;;;;5074825;28;19983;-86
2022/10/11 13:47:34;;;;;;;;;;;22.20;99.90;;;;;;5068325;28;19916;-85
2022/10/11 13:50:01;;;;;;;;;;;22.40;99.60;;;;;;5085054;28;19923;-86
2022/10/11 13:52:26;;;;;;;;;;;22.40;99.80;;;;;;5068894;28;19912;-85
2022/10/11 13:54:53;;;;;;;;;;;22.40;99.60;;;;;;5081554;28;20024;-85
2022/10/11 13:57:20;;;;;;;;;;;22.40;99.90;;;;;;5078105;28;19912;-85
2022/10/11 13:59:46;;;;;;;;;;;22.30;99.90;;;;;;5072627;28;20273;-85
2022/10/11 14:02:19;;;;;;;;;;;22.30;99.90;;;;;;5076845;28;19919;-85
2022/10/11 14:04:46;;;;;;;;;;;22.40;99.90;;;;;;5071233;28;19920;-86
2022/10/11 14:07:21;;;;;;;;;;;22.40;99.90;;;;;;5086742;28;20003;-85
2022/10/11 14:09:47;;;;;;;;;;;22.20;99.90;;;;;;5086290;28;19962;-85
2022/10/11 14:12:25;;;;;;;;;;;22.30;99.90;;;;;;5066668;28;19951;-85
2022/10/11 14:14:51;;;;;;;;;;;22.20;99.90;;;;;;5071946;28;19916;-85
2022/10/11 14:17:18;;;;;;;;;;;22.20;99.90;;;;;;5076641;28;19965;-85
2022/10/11 14:19:44;;;;;;;;;;;22.30;99.90;;;;;;5078379;28;20323;-85
2022/10/11 14:22:14;;;;;;;;;;;22.20;99.90;;;;;;5081775;28;20385;-86
2022/10/11 14:24:40;;;;;;;;;;;22.20;99.90;;;;;;5066737;28;19996;-86